INDIA METEOROLOGICAL DEPARTMENT, R.M.C. NEW DELHI
Dated:14 - 8 - 2018
METARS OF ALTERNATE AIRPORTS
Delhi      
VIDP 141530Z 07004KT 4000 HZ FEW030 SCT100 32/26 Q0999 NOSIG=
Amritsar   
VIAR 141500Z 00000KT 4000 HZ FEW040 SCT100 28/23 Q0998 NOSIG=
Lucknow    
VILK 141530Z 00000KT 3000 HZ SCT020 BKN100 31/28 Q0999 NOSIG=
Jaipur     
VIJP 141530Z 20004KT 2500 HZ FEW030 30/24 Q1001 NOSIG=
Ahmedabad  
VAAH 141530Z 21006KT 4000 HZ SCT018 BKN080 31/25 Q1001 NOSIG=
Mumbai     
VABB 141530Z 26012KT 2800 HZ SCT018 SCT100 28/25 Q1004 BECMG 3000 HZ=